WARM SPRINGS (USACE) (WRS)

Elevation: 440' · RUSSIAN R basin · Operator: US Army Corps of Engineers

Provisional data, subject to change.
Query executed Saturday at 20:03:22   clock

Select a sensor type for a plot of data.
Note: Reservoir Flows are daily averages.

Earlier

Date RES ELE    STORAGE    RES CHG    TOC STO    ABV TOC    OUTFLOW    INFLOW    PPT INC    TEMP MN    TEMP MX    EVP PAN   
 FEET   AF   AF   AF   AF   CFS   CFS   INCHES   DEG F   DEG F   INCHES  
01/29/2015 428.07 189293 -66 245000 -55707 74 45 0.00 5 21 0.05
01/30/2015 428.03 189204 -89 245000 -55796 74 33 0.00 7 22 0.05
01/31/2015 427.98 189093 -111 245000 -55907 74 23 0.00 7 23 0.07
02/01/2015 427.92 188960 -133 245000 -56040 74 10 0.00 5 21 0.05
02/02/2015 427.89 188894 -66 245000 -56106 74 44 0.00 5 22 0.05
02/03/2015 427.85 188805 -89 245000 -56195 75 34 0.00 9 21 0.05
02/04/2015 427.80 188695 -110 245000 -56305 74 22 0.00 7 19 0.05
02/05/2015 427.77 188628 -67 245000 -56372 74 42 0.00 12 16 0.03
02/06/2015 431.89 197893 9265 245000 -47107 85 4757 5.86 13 16 0.01
02/07/2015 434.19 203196 5303 245000 -41804 77 2754 0.06 10 19 0.05
02/08/2015 436.07 207601 4405 245000 -37399 79 2302 1.77 13 17 0.03
02/09/2015 437.77 211638 4037 245000 -33362 78 2116 0.13 9 18 0.05
02/10/2015 438.60 213629 1991 245000 -31371 77 1085 0.00 6 18 0.05
02/11/2015 439.10 214834 1205 245000 -30166 78 690 0.00 5 21 0.06
02/12/2015 439.45 215680 846 245000 -29320 78 509 0.00 6 22 0.06
02/13/2015 439.71 216310 630 245000 -28690 78 400 0.02 6 24 0.07
02/14/2015 439.89 216747 437 245000 -28253 78 303 0.00 7 24 0.07
02/15/2015 440.04 217112 365 245000 -27888 77 267 0.01 7 26 0.07
02/16/2015 440.15 217379 267 245000 -27621 78 218 0.00 7 25 0.07
02/17/2015 440.24 217599 220 245000 -27401 78 191 0.00 10 13 0.03
02/18/2015 440.32 217793 194 245000 -27207 78 179 0.00 8 19 0.05
02/19/2015 440.39 217964 171 245000 -27036 78 168 0.00 7 18 0.05
02/20/2015 440.45 218110 146 245000 -26890 78 156 0.00 8 20 0.06
02/21/2015 440.49 218208 98 245000 -- -- -- -- -- -- --
02/22/2015 440.51 218257 49 245000 -26743 78 108 0.00 4 20 0.08
02/23/2015 440.53 218306 49 245000 -26694 78 109 0.00 3 18 0.09
02/24/2015 440.53 218306 0 245000 -26694 78 84 0.00 2 23 0.08
02/25/2015 440.54 218330 -- 245000 -26670 77 95 0.00 1 23 0.08
02/26/2015 440.55 218354 24 245000 -26646 77 96 0.00 12 21 0.09
02/27/2015 440.56 218379 25 245000 -26621 77 95 0.00 10 17 0.07
02/28/2015 -- -- -- -- -- -- -- -- -- -- --

Later | Latest

Warning! This data is preliminary and subject to revision.

Show WRS Map | Plot WRS Data | 1 Month WRS Data | Real-Time WRS Data | WRS Info